Terminal Aerodrome Forecast
Issued by NWS

Home | Current Version | Previous Version | Text Only | Print | Product List | Glossary On
Versions: 1 2 3 4 5 6 7 8 9 10 11 12 13 14 15 16 17 18 19 20 21 22 23 24 25
174
FTAK31 PAJN 032337
TAFASI
TAF
PASI 032337Z 0400/0424 VRB06KT P6SM VCSH FEW010 FEW025 BKN100
      TEMPO 0400/0404 3SM -SHSN BKN010 OVC025
     FM040400 VRB06KT P6SM VCSH SCT025 SCT040 BKN060
      TEMPO 0404/0408 12010KT 4SM -SHSN SCT010 BKN025
     FM040800 07010KT 2SM -SHSN BKN008 OVC035
     FM042100 07010KT P6SM SCT030=

USA.gov is the U.S. government's official web portal to all federal, state and local government web resources and services.